createdAt,value
2019-05-05T00:00:54.959Z,1013.08
2019-05-05T00:01:55.367Z,1013.11
2019-05-05T00:03:55.035Z,1013.13
2019-05-05T00:04:54.398Z,1013.11
2019-05-05T00:05:54.714Z,1013.13
2019-05-05T00:06:54.899Z,1013.11
2019-05-05T00:07:54.164Z,1013.14
2019-05-05T00:08:54.702Z,1013.11
2019-05-05T00:09:55.109Z,1013.12
2019-05-05T00:10:54.181Z,1013.10
2019-05-05T00:11:54.693Z,1013.11
2019-05-05T00:12:55.042Z,1013.10
2019-05-05T00:13:55.158Z,1013.13
2019-05-05T00:14:54.689Z,1013.12
2019-05-05T00:15:55.077Z,1013.11
2019-05-05T00:16:54.650Z,1013.10
2019-05-05T00:17:55.010Z,1013.12
2019-05-05T00:18:54.280Z,1013.09
2019-05-05T00:19:54.970Z,1013.10
2019-05-05T00:20:55.191Z,1013.13
2019-05-05T00:21:55.118Z,1013.16
2019-05-05T00:22:54.637Z,1013.13
2019-05-05T00:23:55.347Z,1013.15
2019-05-05T00:24:54.645Z,1013.15
2019-05-05T00:25:55.300Z,1013.16
2019-05-05T00:26:55.278Z,1013.18
2019-05-05T00:27:54.611Z,1013.15
2019-05-05T00:28:55.361Z,1013.18
2019-05-05T00:29:54.727Z,1013.19
2019-05-05T00:30:55.392Z,1013.18
2019-05-05T00:31:54.669Z,1013.19
2019-05-05T00:32:54.832Z,1013.23
2019-05-05T00:33:54.515Z,1013.20
2019-05-05T00:34:55.157Z,1013.25
2019-05-05T00:35:54.614Z,1013.23
2019-05-05T00:36:55.236Z,1013.24
2019-05-05T00:37:54.491Z,1013.23
2019-05-05T00:38:55.236Z,1013.25
2019-05-05T00:39:54.401Z,1013.28
2019-05-05T00:40:55.043Z,1013.30
2019-05-05T00:41:55.492Z,1013.30
2019-05-05T00:42:54.776Z,1013.30
2019-05-05T00:44:54.926Z,1013.33
2019-05-05T00:45:55.667Z,1013.35
2019-05-05T00:46:55.005Z,1013.36
2019-05-05T00:47:54.572Z,1013.34
2019-05-05T00:48:55.034Z,1013.37
2019-05-05T00:49:56.316Z,1013.36
2019-05-05T00:50:55.651Z,1013.38
2019-05-05T00:53:55.478Z,1013.41
2019-05-05T00:54:55.601Z,1013.41
2019-05-05T00:55:54.801Z,1013.43
2019-05-05T00:56:54.967Z,1013.41
2019-05-05T00:57:54.939Z,1013.46
2019-05-05T00:58:55.342Z,1013.42
2019-05-05T00:59:54.763Z,1013.40
2019-05-05T01:00:54.926Z,1013.45
2019-05-05T01:01:55.372Z,1013.43
2019-05-05T01:02:54.853Z,1013.40
2019-05-05T01:04:55.432Z,1013.40
2019-05-05T01:05:55.368Z,1013.41
2019-05-05T01:06:54.978Z,1013.42
2019-05-05T01:07:55.005Z,1013.43
2019-05-05T01:08:55.135Z,1013.42
2019-05-05T01:09:55.126Z,1013.43
2019-05-05T01:10:55.151Z,1013.44
2019-05-05T01:11:55.492Z,1013.48
2019-05-05T01:12:55.221Z,1013.47
2019-05-05T01:13:55.346Z,1013.46
2019-05-05T01:14:55.404Z,1013.46
2019-05-05T01:15:55.311Z,1013.43
2019-05-05T01:16:55.445Z,1013.45
2019-05-05T01:17:55.445Z,1013.46
2019-05-05T01:18:55.681Z,1013.47
2019-05-05T01:20:03.191Z,1013.46
2019-05-05T01:20:55.417Z,1013.46
2019-05-05T01:21:55.448Z,1013.47
2019-05-05T01:22:55.530Z,1013.49
2019-05-05T01:23:55.572Z,1013.50
2019-05-05T01:24:55.625Z,1013.48
2019-05-05T01:25:55.923Z,1013.48
2019-05-05T01:27:55.647Z,1013.49
2019-05-05T01:28:56.323Z,1013.48
2019-05-05T01:29:55.748Z,1013.48
2019-05-05T01:30:55.826Z,1013.49
2019-05-05T01:31:55.806Z,1013.48
2019-05-05T01:32:56.137Z,1013.47
2019-05-05T01:33:55.869Z,1013.46
2019-05-05T01:34:55.856Z,1013.47
2019-05-05T01:35:55.938Z,1013.49
2019-05-05T01:36:55.915Z,1013.48
2019-05-05T01:37:55.997Z,1013.53
2019-05-05T01:38:55.980Z,1013.47
2019-05-05T01:39:56.461Z,1013.49
2019-05-05T01:40:56.045Z,1013.50
2019-05-05T01:41:56.172Z,1013.50
2019-05-05T01:42:56.149Z,1013.52
2019-05-05T01:43:56.180Z,1013.51
2019-05-05T01:44:56.173Z,1013.50
2019-05-05T01:45:56.544Z,1013.49
2019-05-05T01:46:56.589Z,1013.48
2019-05-05T01:47:56.264Z,1013.51
2019-05-05T01:48:56.347Z,1013.48
2019-05-05T01:49:56.670Z,1013.50
2019-05-05T01:50:56.410Z,1013.48
2019-05-05T01:51:56.434Z,1013.49
2019-05-05T01:52:56.465Z,1013.51
2019-05-05T01:53:56.808Z,1013.55
2019-05-05T01:54:56.647Z,1013.56
2019-05-05T01:55:56.562Z,1013.57
2019-05-05T01:56:56.591Z,1013.53
2019-05-05T01:57:56.586Z,1013.56
2019-05-05T01:58:56.673Z,1013.57
2019-05-05T01:59:56.630Z,1013.62
2019-05-05T02:00:57.018Z,1013.60
2019-05-05T02:01:56.749Z,1013.59
2019-05-05T02:02:56.732Z,1013.62
2019-05-05T02:03:57.138Z,1013.61
2019-05-05T02:05:56.872Z,1013.62
2019-05-05T02:06:56.854Z,1013.61
2019-05-05T02:07:57.232Z,1013.61
2019-05-05T02:08:56.932Z,1013.61
2019-05-05T02:09:56.951Z,1013.63
2019-05-05T02:10:57.038Z,1013.67
2019-05-05T02:11:57.160Z,1013.65
2019-05-05T02:12:57.046Z,1013.65
2019-05-05T02:13:57.123Z,1013.63
2019-05-05T02:14:57.406Z,1013.62
2019-05-05T02:15:57.182Z,1013.65
2019-05-05T02:16:57.215Z,1013.63
2019-05-05T02:17:57.242Z,1013.64
2019-05-05T02:18:57.236Z,1013.65
2019-05-05T02:19:57.305Z,1013.66
2019-05-05T02:20:57.595Z,1013.69
2019-05-05T02:22:57.407Z,1013.67
2019-05-05T02:23:57.385Z,1013.65
2019-05-05T02:24:57.422Z,1013.69
2019-05-05T02:25:57.494Z,1013.67
2019-05-05T02:26:57.826Z,1013.67
2019-05-05T02:27:57.558Z,1013.65
2019-05-05T02:28:57.545Z,1013.65
2019-05-05T02:29:57.623Z,1013.63
2019-05-05T02:30:57.648Z,1013.68
2019-05-05T02:31:57.682Z,1013.64
2019-05-05T02:32:58.014Z,1013.64
2019-05-05T02:33:57.742Z,1013.66
2019-05-05T02:34:57.783Z,1013.68
2019-05-05T02:36:57.852Z,1013.65
2019-05-05T02:37:57.822Z,1013.64
2019-05-05T02:38:57.849Z,1013.68
2019-05-05T02:40:03.425Z,1013.71
2019-05-05T02:40:57.965Z,1013.72
2019-05-05T02:41:57.995Z,1013.67
2019-05-05T02:43:58.012Z,1013.65
2019-05-05T02:44:58.090Z,1013.64
2019-05-05T02:45:58.079Z,1013.68
2019-05-05T02:46:58.452Z,1013.69
2019-05-05T02:47:58.184Z,1013.66
2019-05-05T02:48:58.162Z,1013.67
2019-05-05T02:49:58.191Z,1013.70
2019-05-05T02:51:02.444Z,1013.70
2019-05-05T02:51:58.318Z,1013.69
2019-05-05T02:52:58.334Z,1013.70
2019-05-05T02:53:58.667Z,1013.69
2019-05-05T02:54:58.396Z,1013.70
2019-05-05T02:55:58.438Z,1013.68
2019-05-05T02:56:58.469Z,1013.70
2019-05-05T02:57:58.488Z,1013.67
2019-05-05T02:59:58.556Z,1013.69
2019-05-05T03:00:58.829Z,1013.67
2019-05-05T03:02:58.652Z,1013.70
2019-05-05T03:03:58.680Z,1013.71
2019-05-05T03:04:58.667Z,1013.73
2019-05-05T03:05:58.798Z,1013.72
2019-05-05T03:06:58.866Z,1013.72
2019-05-05T03:07:59.097Z,1013.70
2019-05-05T03:08:58.837Z,1013.74
2019-05-05T03:09:58.816Z,1013.71
2019-05-05T03:10:58.894Z,1013.76
2019-05-05T03:11:58.923Z,1013.74
2019-05-05T03:12:59.059Z,1013.71
2019-05-05T03:13:58.990Z,1013.76
2019-05-05T03:14:59.319Z,1013.77
2019-05-05T03:16:59.127Z,1013.78
2019-05-05T03:31:28.073Z,1013.83
2019-05-05T03:32:28.104Z,1013.83
2019-05-05T03:33:28.237Z,1013.80
2019-05-05T03:34:28.122Z,1013.79
2019-05-05T03:35:28.146Z,1013.79
2019-05-05T03:36:28.328Z,1013.76
2019-05-05T03:37:28.658Z,1013.81
2019-05-05T03:38:28.294Z,1013.82
2019-05-05T03:39:28.330Z,1013.80
2019-05-05T03:40:28.355Z,1013.86
2019-05-05T03:41:28.343Z,1013.86
2019-05-05T03:42:28.416Z,1013.85
2019-05-05T03:43:28.601Z,1013.86
2019-05-05T03:44:28.779Z,1013.87
2019-05-05T03:45:28.504Z,1013.85
2019-05-05T03:46:28.539Z,1013.84
2019-05-05T03:47:28.522Z,1013.88
2019-05-05T03:48:28.549Z,1013.89
2019-05-05T03:49:28.632Z,1013.90
2019-05-05T03:50:28.659Z,1013.90
2019-05-05T03:51:28.940Z,1013.92
2019-05-05T03:52:28.721Z,1013.90
2019-05-05T03:53:28.779Z,1013.95
2019-05-05T03:54:28.801Z,1013.97
2019-05-05T03:56:28.799Z,1013.95
2019-05-05T03:57:28.875Z,1013.99
2019-05-05T03:58:28.859Z,1013.99
2019-05-05T03:59:28.939Z,1014.00
2019-05-05T04:01:29.002Z,1014.04
2019-05-05T04:02:29.132Z,1014.03
2019-05-05T04:03:29.013Z,1014.02
2019-05-05T04:04:29.344Z,1014.02
2019-05-05T04:05:29.124Z,1014.04
2019-05-05T04:06:29.256Z,1014.02
2019-05-05T04:07:29.137Z,1014.07
2019-05-05T04:08:29.167Z,1014.06
2019-05-05T04:09:29.198Z,1014.02
2019-05-05T04:10:29.280Z,1014.05
2019-05-05T04:11:29.569Z,1014.05
2019-05-05T04:12:29.642Z,1014.01
2019-05-05T04:13:29.326Z,1014.04
2019-05-05T04:14:29.406Z,1013.95
2019-05-05T04:15:29.441Z,1013.99
2019-05-05T04:16:29.459Z,1013.95
2019-05-05T04:17:29.441Z,1013.99
2019-05-05T04:18:30.130Z,1013.96
2019-05-05T04:19:29.502Z,1013.99
2019-05-05T04:21:33.728Z,1014.04
2019-05-05T04:22:29.603Z,1014.10
2019-05-05T04:23:29.686Z,1014.13
2019-05-05T04:24:29.657Z,1014.14
2019-05-05T04:25:29.991Z,1014.10
2019-05-05T04:26:29.773Z,1014.12
2019-05-05T04:27:29.804Z,1014.18
2019-05-05T04:28:29.780Z,1014.22
2019-05-05T04:29:29.815Z,1014.23
2019-05-05T04:30:29.850Z,1014.19
2019-05-05T04:31:30.242Z,1014.22
2019-05-05T04:32:30.290Z,1014.22
2019-05-05T04:33:30.091Z,1014.19
2019-05-05T04:34:29.977Z,1014.18
2019-05-05T04:35:30.010Z,1014.18
2019-05-05T04:36:30.083Z,1014.20
2019-05-05T04:37:30.063Z,1014.21
2019-05-05T04:38:30.142Z,1014.19
2019-05-05T04:39:30.580Z,1014.25
2019-05-05T04:40:30.155Z,1014.23
2019-05-05T04:41:30.241Z,1014.22
2019-05-05T04:42:30.270Z,1014.17
2019-05-05T04:43:30.247Z,1014.20
2019-05-05T04:44:30.283Z,1014.20
2019-05-05T04:45:30.309Z,1014.23
2019-05-05T04:46:30.691Z,1014.25
2019-05-05T04:47:30.384Z,1014.26
2019-05-05T04:48:30.537Z,1014.29
2019-05-05T04:49:30.513Z,1014.31
2019-05-05T04:50:30.521Z,1014.33
2019-05-05T04:51:43.537Z,1014.38
2019-05-05T04:52:30.531Z,1014.39
2019-05-05T04:54:30.636Z,1014.37
2019-05-05T04:55:30.768Z,1014.43
2019-05-05T04:56:30.647Z,1014.43
2019-05-05T04:57:30.690Z,1014.41
2019-05-05T04:58:31.168Z,1014.42
2019-05-05T05:00:30.769Z,1014.48
2019-05-05T05:01:30.895Z,1014.44
2019-05-05T05:02:30.895Z,1014.48
2019-05-05T05:03:30.914Z,1014.50
2019-05-05T05:04:31.199Z,1014.50
2019-05-05T05:05:30.927Z,1014.49
2019-05-05T05:06:30.967Z,1014.53
2019-05-05T05:07:31.045Z,1014.55
2019-05-05T05:08:31.076Z,1014.54
2019-05-05T05:09:31.054Z,1014.53
2019-05-05T05:10:31.229Z,1014.58
2019-05-05T05:11:31.420Z,1014.60
2019-05-05T05:12:31.199Z,1014.62
2019-05-05T05:13:31.329Z,1014.61
2019-05-05T05:14:33.561Z,1014.63
2019-05-05T05:15:31.237Z,1014.62
2019-05-05T05:16:31.324Z,1014.61
2019-05-05T05:17:31.354Z,1014.61
2019-05-05T05:18:31.682Z,1014.61
2019-05-05T05:19:33.396Z,1014.65
2019-05-05T05:20:31.401Z,1014.64
2019-05-05T05:21:31.424Z,1014.65
2019-05-05T05:22:33.345Z,1014.65
2019-05-05T05:23:31.491Z,1014.67
2019-05-05T05:24:31.578Z,1014.68
2019-05-05T05:25:31.861Z,1014.68
2019-05-05T05:26:33.487Z,1014.63
2019-05-05T05:28:31.641Z,1014.67
2019-05-05T05:29:31.720Z,1014.63
2019-05-05T05:30:31.703Z,1014.69
2019-05-05T05:31:33.630Z,1014.70
2019-05-05T05:33:31.851Z,1014.69
2019-05-05T05:34:31.880Z,1014.73
2019-05-05T05:35:33.607Z,1014.75
2019-05-05T05:36:33.827Z,1014.76
2019-05-05T05:37:34.148Z,1014.75
2019-05-05T05:38:31.949Z,1014.78
2019-05-05T05:39:33.601Z,1014.80
2019-05-05T05:40:34.080Z,1014.80
2019-05-05T05:42:33.612Z,1014.87
2019-05-05T05:43:33.488Z,1014.87
2019-05-05T05:44:33.848Z,1014.89
2019-05-05T05:45:34.124Z,1014.91
2019-05-05T05:46:33.435Z,1014.92
2019-05-05T05:47:33.833Z,1014.91
2019-05-05T05:48:34.222Z,1014.88
2019-05-05T05:49:34.499Z,1014.93
2019-05-05T05:50:33.916Z,1014.92
2019-05-05T05:51:34.105Z,1014.95
2019-05-05T05:52:34.337Z,1014.97
2019-05-05T05:53:34.741Z,1014.97
2019-05-05T05:54:34.047Z,1014.96
2019-05-05T05:55:34.322Z,1014.98
2019-05-05T05:56:34.323Z,1014.99
2019-05-05T05:57:34.564Z,1015.01
2019-05-05T05:58:33.780Z,1015.00
2019-05-05T05:59:33.964Z,1015.05
2019-05-05T06:00:34.319Z,1015.03
2019-05-05T06:01:34.596Z,1015.02
2019-05-05T06:02:33.469Z,1015.06
2019-05-05T06:03:33.924Z,1014.99
2019-05-05T06:04:34.046Z,1015.04
2019-05-05T06:05:34.335Z,1015.08
2019-05-05T06:06:34.648Z,1015.09
2019-05-05T06:07:33.613Z,1015.09
2019-05-05T06:08:34.703Z,1015.08
2019-05-05T06:09:34.416Z,1015.11
2019-05-05T06:10:33.919Z,1015.13
2019-05-05T06:11:34.429Z,1015.17
2019-05-05T06:12:33.632Z,1015.16
2019-05-05T06:14:34.082Z,1015.20
2019-05-05T06:15:33.889Z,1015.26
2019-05-05T06:16:34.135Z,1015.26
2019-05-05T06:17:34.364Z,1015.32
2019-05-05T06:18:34.574Z,1015.35
2019-05-05T06:19:33.814Z,1015.37
2019-05-05T06:20:34.362Z,1015.36
2019-05-05T06:21:33.885Z,1015.43
2019-05-05T06:22:34.422Z,1015.41
2019-05-05T06:23:34.398Z,1015.42
2019-05-05T06:24:34.601Z,1015.43
2019-05-05T06:25:34.254Z,1015.46
2019-05-05T06:26:34.362Z,1015.45
2019-05-05T06:27:34.181Z,1015.49
2019-05-05T06:28:34.218Z,1015.44
2019-05-05T06:30:33.863Z,1015.50
2019-05-05T06:31:34.242Z,1015.49
2019-05-05T06:32:34.250Z,1015.50
2019-05-05T06:33:34.771Z,1015.51
2019-05-05T06:34:34.007Z,1015.56
2019-05-05T06:35:33.961Z,1015.54
2019-05-05T06:36:34.128Z,1015.55
2019-05-05T06:37:34.302Z,1015.56
2019-05-05T06:38:34.618Z,1015.56
2019-05-05T06:39:33.891Z,1015.56
2019-05-05T06:40:34.202Z,1015.57
2019-05-05T06:41:34.293Z,1015.55
2019-05-05T06:42:34.363Z,1015.57
2019-05-05T06:43:34.779Z,1015.55
2019-05-05T06:44:34.044Z,1015.52
2019-05-05T06:45:34.361Z,1015.54
2019-05-05T06:46:34.387Z,1015.55
2019-05-05T06:47:34.397Z,1015.52
2019-05-05T06:49:34.654Z,1015.56
2019-05-05T06:50:34.536Z,1015.55
2019-05-05T06:51:34.372Z,1015.55
2019-05-05T06:52:43.839Z,1015.60
2019-05-05T06:53:34.357Z,1015.56
2019-05-05T06:54:34.937Z,1015.53
2019-05-05T06:56:34.375Z,1015.56
2019-05-05T06:57:34.456Z,1015.52
2019-05-05T06:59:35.077Z,1015.51
2019-05-05T07:01:34.882Z,1015.58
2019-05-05T07:02:34.571Z,1015.60
2019-05-05T07:03:34.644Z,1015.61
2019-05-05T07:04:34.627Z,1015.62
2019-05-05T07:05:34.727Z,1015.63
2019-05-05T07:06:34.784Z,1015.65
2019-05-05T07:07:35.120Z,1015.62
2019-05-05T07:08:34.894Z,1015.62
2019-05-05T07:09:34.881Z,1015.62
2019-05-05T07:10:34.810Z,1015.63
2019-05-05T07:11:34.892Z,1015.64
2019-05-05T07:12:34.874Z,1015.63
2019-05-05T07:13:34.963Z,1015.63
2019-05-05T07:14:35.243Z,1015.68
2019-05-05T07:16:35.015Z,1015.65
2019-05-05T07:18:35.116Z,1015.63
2019-05-05T07:19:35.197Z,1015.64
2019-05-05T07:20:35.189Z,1015.64
2019-05-05T07:21:35.456Z,1015.64
2019-05-05T07:22:35.236Z,1015.67
2019-05-05T07:23:35.271Z,1015.64
2019-05-05T07:24:35.401Z,1015.65
2019-05-05T07:26:35.372Z,1015.64
2019-05-05T07:27:35.344Z,1015.66
2019-05-05T07:29:35.757Z,1015.72
2019-05-05T07:30:35.488Z,1015.67
2019-05-05T07:31:35.472Z,1015.70
2019-05-05T07:32:35.551Z,1015.69
2019-05-05T07:34:35.573Z,1015.66
2019-05-05T07:35:35.650Z,1015.68
2019-05-05T07:36:35.991Z,1015.68
2019-05-05T07:38:35.746Z,1015.68
2019-05-05T07:39:35.723Z,1015.66
2019-05-05T07:40:35.808Z,1015.68
2019-05-05T07:42:35.882Z,1015.66
2019-05-05T07:43:36.207Z,1015.62
2019-05-05T07:44:35.932Z,1015.67
2019-05-05T07:45:35.966Z,1015.64
2019-05-05T07:47:36.306Z,1015.67
2019-05-05T07:48:36.064Z,1015.66
2019-05-05T07:49:36.148Z,1015.66
2019-05-05T07:50:36.561Z,1015.69
2019-05-05T07:53:36.315Z,1015.74
2019-05-05T07:54:36.541Z,1015.76
2019-05-05T07:55:36.278Z,1015.71
2019-05-05T07:56:36.383Z,1015.76
2019-05-05T07:57:36.769Z,1015.75
2019-05-05T07:58:36.868Z,1015.72
2019-05-05T07:59:36.577Z,1015.71
2019-05-05T08:00:36.412Z,1015.75
2019-05-05T08:03:36.594Z,1015.72
2019-05-05T08:04:37.163Z,1015.74
2019-05-05T08:06:36.730Z,1015.77
2019-05-05T08:07:36.665Z,1015.73
2019-05-05T08:08:36.854Z,1015.78
2019-05-05T08:09:36.851Z,1015.76
2019-05-05T08:10:36.865Z,1015.81
2019-05-05T08:11:37.113Z,1015.76
2019-05-05T08:12:37.128Z,1015.81
2019-05-05T08:13:36.891Z,1015.78
2019-05-05T08:14:36.901Z,1015.82
2019-05-05T08:15:36.921Z,1015.80
2019-05-05T08:17:38.980Z,1015.78
2019-05-05T08:18:37.352Z,1015.80
2019-05-05T08:19:37.091Z,1015.80
2019-05-05T08:21:37.115Z,1015.69
2019-05-05T08:22:37.159Z,1015.79
2019-05-05T08:23:37.290Z,1015.71
2019-05-05T08:24:37.402Z,1015.75
2019-05-05T08:25:40.348Z,1015.77
2019-05-05T08:27:37.308Z,1015.74
2019-05-05T08:28:37.337Z,1015.71
2019-05-05T08:30:37.528Z,1015.73
2019-05-05T08:32:37.470Z,1015.69
2019-05-05T08:33:37.565Z,1015.70
2019-05-05T08:35:38.022Z,1015.69
2019-05-05T08:36:39.420Z,1015.62
2019-05-05T08:37:37.720Z,1015.65
2019-05-05T08:38:37.691Z,1015.64
2019-05-05T08:39:37.991Z,1015.66
2019-05-05T08:40:37.733Z,1015.64
2019-05-05T08:41:38.060Z,1015.64
2019-05-05T08:42:37.780Z,1015.70
2019-05-05T08:43:37.817Z,1015.72
2019-05-05T08:44:37.844Z,1015.65
2019-05-05T08:45:37.900Z,1015.68
2019-05-05T08:46:38.257Z,1015.66
2019-05-05T08:47:37.986Z,1015.67
2019-05-05T08:48:38.106Z,1015.64
2019-05-05T08:49:37.974Z,1015.61
2019-05-05T08:50:37.999Z,1015.61
2019-05-05T08:51:38.017Z,1015.61
2019-05-05T08:52:38.402Z,1015.64
2019-05-05T08:53:44.968Z,1015.64
2019-05-05T08:54:38.152Z,1015.64
2019-05-05T08:55:38.253Z,1015.67
2019-05-05T08:57:38.385Z,1015.73
2019-05-05T08:59:38.688Z,1015.73
2019-05-05T09:00:38.342Z,1015.66
2019-05-05T09:01:38.479Z,1015.66
2019-05-05T09:03:38.469Z,1015.65
2019-05-05T09:05:38.538Z,1015.64
2019-05-05T09:06:38.849Z,1015.65
2019-05-05T09:07:44.987Z,1015.62
2019-05-05T09:08:38.809Z,1015.63
2019-05-05T09:09:38.724Z,1015.67
2019-05-05T09:10:38.708Z,1015.65
2019-05-05T09:11:38.763Z,1015.66
2019-05-05T09:12:39.046Z,1015.67
2019-05-05T09:13:39.048Z,1015.64
2019-05-05T09:14:39.024Z,1015.66
2019-05-05T09:15:38.827Z,1015.63
2019-05-05T09:16:39.473Z,1015.59
2019-05-05T09:17:39.066Z,1015.53
2019-05-05T09:18:40.312Z,1015.62
2019-05-05T09:19:38.983Z,1015.59
2019-05-05T09:20:39.011Z,1015.61
2019-05-05T09:21:38.991Z,1015.62
2019-05-05T09:22:39.054Z,1015.67
2019-05-05T09:23:39.119Z,1015.66
2019-05-05T09:24:39.153Z,1015.63
2019-05-05T09:25:39.753Z,1015.67
2019-05-05T09:26:39.150Z,1015.64
2019-05-05T09:27:39.268Z,1015.65
2019-05-05T09:28:39.395Z,1015.66
2019-05-05T09:29:39.346Z,1015.64
2019-05-05T09:30:39.354Z,1015.59
2019-05-05T09:31:39.405Z,1015.58
2019-05-05T09:32:39.677Z,1015.61
2019-05-05T09:33:39.524Z,1015.55
2019-05-05T09:34:39.414Z,1015.52
2019-05-05T09:35:39.503Z,1015.57
2019-05-05T09:37:39.566Z,1015.59
2019-05-05T09:38:39.677Z,1015.61
2019-05-05T09:39:40.095Z,1015.66
2019-05-05T09:40:39.604Z,1015.60
2019-05-05T09:41:39.728Z,1015.68
2019-05-05T09:42:39.890Z,1015.76
2019-05-05T09:43:39.812Z,1015.82
2019-05-05T09:44:39.886Z,1015.78
2019-05-05T09:45:39.772Z,1015.76
2019-05-05T09:46:40.175Z,1015.86
2019-05-05T09:47:40.240Z,1015.87
2019-05-05T09:49:40.037Z,1015.93
2019-05-05T09:50:39.994Z,1016.01
2019-05-05T09:52:40.166Z,1015.98
2019-05-05T09:53:40.108Z,1015.90
2019-05-05T09:54:40.165Z,1015.90
2019-05-05T09:55:40.197Z,1015.88
2019-05-05T09:56:40.245Z,1015.90
2019-05-05T09:57:40.248Z,1015.87
2019-05-05T10:00:40.413Z,1015.90
2019-05-05T10:02:40.732Z,1015.88
2019-05-05T10:03:40.471Z,1015.86
2019-05-05T10:04:40.451Z,1015.87
2019-05-05T10:06:40.465Z,1015.87
2019-05-05T10:07:40.538Z,1015.82
2019-05-05T10:10:40.976Z,1015.87
2019-05-05T10:11:40.622Z,1015.80
2019-05-05T10:12:40.699Z,1015.89
2019-05-05T10:15:40.824Z,1015.83
2019-05-05T10:16:41.347Z,1015.79
2019-05-05T10:17:40.910Z,1015.76
2019-05-05T10:19:41.038Z,1015.83
2019-05-05T10:22:41.047Z,1015.90
2019-05-05T10:23:43.509Z,1015.84
2019-05-05T10:25:41.125Z,1015.79
2019-05-05T10:26:41.172Z,1015.83
2019-05-05T10:27:44.843Z,1015.80
2019-05-05T10:28:41.171Z,1015.85
2019-05-05T10:29:41.316Z,1015.85
2019-05-05T10:31:43.549Z,1015.85
2019-05-05T10:32:41.363Z,1015.87
2019-05-05T10:34:43.814Z,1015.83
2019-05-05T10:35:43.210Z,1015.84
2019-05-05T10:36:41.867Z,1015.85
2019-05-05T10:37:43.364Z,1015.86
2019-05-05T10:41:41.687Z,1015.86
2019-05-05T10:42:41.751Z,1015.84
2019-05-05T10:43:43.617Z,1015.85
2019-05-05T10:44:41.833Z,1015.87
2019-05-05T10:45:43.900Z,1015.87
2019-05-05T10:46:42.031Z,1015.89
2019-05-05T10:47:43.963Z,1015.87
2019-05-05T10:48:41.895Z,1015.88
2019-05-05T10:49:44.161Z,1015.87
2019-05-05T10:51:43.875Z,1015.86
2019-05-05T10:52:44.162Z,1015.85
2019-05-05T10:53:43.812Z,1015.84
2019-05-05T10:54:44.773Z,1015.84
2019-05-05T10:55:44.738Z,1015.81
2019-05-05T10:57:43.580Z,1015.83
2019-05-05T10:58:44.115Z,1015.81
2019-05-05T11:00:44.535Z,1015.82
2019-05-05T11:02:42.596Z,1015.77
2019-05-05T11:03:44.647Z,1015.83
2019-05-05T11:04:44.165Z,1015.83
2019-05-05T11:05:44.542Z,1015.81
2019-05-05T11:06:44.088Z,1015.79
2019-05-05T11:07:42.530Z,1015.83
2019-05-05T11:08:44.990Z,1015.87
2019-05-05T11:09:44.402Z,1015.90
2019-05-05T11:10:44.801Z,1015.89
2019-05-05T11:11:43.875Z,1015.87
2019-05-05T11:12:44.384Z,1015.85
2019-05-05T11:15:44.283Z,1015.89
2019-05-05T11:17:43.920Z,1015.89
2019-05-05T11:18:42.948Z,1015.89
2019-05-05T11:20:44.638Z,1015.86
2019-05-05T11:21:43.608Z,1015.86
2019-05-05T11:22:43.879Z,1015.90
2019-05-05T11:23:44.795Z,1015.83
2019-05-05T11:24:56.732Z,1015.88
2019-05-05T11:25:44.265Z,1015.84
2019-05-05T11:26:44.588Z,1015.84
2019-05-05T11:27:43.990Z,1015.84
2019-05-05T11:28:44.557Z,1015.84
2019-05-05T11:29:43.745Z,1015.84
2019-05-05T11:31:43.411Z,1015.85
2019-05-05T11:32:44.087Z,1015.83
2019-05-05T11:33:43.790Z,1015.81
2019-05-05T11:34:44.239Z,1015.84
2019-05-05T11:35:44.439Z,1015.81
2019-05-05T11:36:43.903Z,1015.80
2019-05-05T11:37:43.870Z,1015.73
2019-05-05T11:38:44.582Z,1015.71
2019-05-05T11:39:44.572Z,1015.69
2019-05-05T11:40:44.003Z,1015.70
2019-05-05T11:41:44.119Z,1015.73
2019-05-05T11:42:43.671Z,1015.74
2019-05-05T11:43:44.066Z,1015.70
2019-05-05T11:45:44.026Z,1015.73
2019-05-05T11:46:44.346Z,1015.69
2019-05-05T11:47:44.384Z,1015.68
2019-05-05T11:48:44.093Z,1015.71
2019-05-05T11:49:44.228Z,1015.71
2019-05-05T11:50:43.881Z,1015.64
2019-05-05T11:51:44.118Z,1015.67
2019-05-05T11:52:44.473Z,1015.65
2019-05-05T11:53:54.077Z,1015.61
2019-05-05T11:54:44.068Z,1015.60
2019-05-05T11:55:44.429Z,1015.64
2019-05-05T11:56:45.477Z,1015.63
2019-05-05T11:57:44.163Z,1015.64
2019-05-05T11:58:44.409Z,1015.65
2019-05-05T11:59:44.362Z,1015.66
2019-05-05T12:00:44.265Z,1015.67
2019-05-05T12:02:44.323Z,1015.68
2019-05-05T12:03:44.626Z,1015.72
2019-05-05T12:04:44.775Z,1015.68
2019-05-05T12:05:44.445Z,1015.75
2019-05-05T12:06:44.479Z,1015.64
2019-05-05T12:07:44.724Z,1015.67
2019-05-05T12:09:44.578Z,1015.70
2019-05-05T12:10:46.044Z,1015.69
2019-05-05T12:11:44.981Z,1015.69
2019-05-05T12:12:44.996Z,1015.72
2019-05-05T12:14:44.772Z,1015.74
2019-05-05T12:15:44.751Z,1015.76
2019-05-05T12:16:44.892Z,1015.82
2019-05-05T12:18:45.057Z,1015.84
2019-05-05T12:19:44.831Z,1015.88
2019-05-05T12:20:44.919Z,1015.88
2019-05-05T12:21:45.152Z,1015.87
2019-05-05T12:22:45.033Z,1015.89
2019-05-05T12:23:45.324Z,1015.87
2019-05-05T12:24:45.042Z,1015.83
2019-05-05T12:25:45.102Z,1015.84
2019-05-05T12:27:45.471Z,1015.85
2019-05-05T12:28:45.314Z,1015.80
2019-05-05T12:29:45.575Z,1015.86
2019-05-05T12:30:45.247Z,1015.83
2019-05-05T12:32:45.466Z,1015.91
2019-05-05T12:33:45.479Z,1015.88
2019-05-05T12:34:45.391Z,1015.84
2019-05-05T12:35:45.875Z,1015.79
2019-05-05T12:36:45.483Z,1015.81
2019-05-05T12:38:45.692Z,1015.73
2019-05-05T12:39:45.687Z,1015.71
2019-05-05T12:40:45.540Z,1015.73
2019-05-05T12:41:45.789Z,1015.74
2019-05-05T12:42:46.511Z,1015.79
2019-05-05T12:44:45.770Z,1015.88
2019-05-05T12:48:45.921Z,1015.81
2019-05-05T12:49:47.275Z,1015.87
2019-05-05T12:50:45.976Z,1015.92
2019-05-05T12:51:45.948Z,1015.88
2019-05-05T12:53:46.013Z,1015.92
2019-05-05T12:54:46.049Z,1016.02
2019-05-05T12:55:46.120Z,1016.04
2019-05-05T12:56:46.413Z,1016.00
2019-05-05T12:57:46.101Z,1016.07
2019-05-05T12:58:46.326Z,1016.09
2019-05-05T12:59:46.214Z,1016.08
2019-05-05T13:00:46.304Z,1016.06
2019-05-05T13:01:46.246Z,1016.12
2019-05-05T13:02:46.363Z,1016.06
2019-05-05T13:03:47.140Z,1016.09
2019-05-05T13:04:46.369Z,1016.08
2019-05-05T13:05:46.432Z,1016.12
2019-05-05T13:06:46.473Z,1016.14
2019-05-05T13:07:46.487Z,1016.08
2019-05-05T13:08:46.526Z,1016.09
2019-05-05T13:09:46.582Z,1016.08
2019-05-05T13:10:46.874Z,1016.10
2019-05-05T13:12:46.640Z,1016.06
2019-05-05T13:13:46.702Z,1016.08
2019-05-05T13:14:46.720Z,1016.08
2019-05-05T13:16:52.395Z,1016.05
2019-05-05T13:18:47.154Z,1016.01
2019-05-05T13:19:46.836Z,1016.05
2019-05-05T13:20:46.926Z,1016.03
2019-05-05T13:22:47.039Z,1016.09
2019-05-05T13:23:46.988Z,1016.09
2019-05-05T13:24:47.018Z,1016.11
2019-05-05T13:25:56.152Z,1016.04
2019-05-05T13:26:47.203Z,1016.05
2019-05-05T13:27:47.270Z,1015.99
2019-05-05T13:28:47.218Z,1015.97
2019-05-05T13:29:47.191Z,1015.97
2019-05-05T13:30:47.282Z,1016.01
2019-05-05T13:31:47.447Z,1015.96
2019-05-05T13:32:47.669Z,1015.97
2019-05-05T13:33:47.413Z,1015.95
2019-05-05T13:34:47.571Z,1015.91
2019-05-05T13:36:47.477Z,1015.91
2019-05-05T13:38:47.579Z,1015.85
2019-05-05T13:39:47.614Z,1015.87
2019-05-05T13:42:47.713Z,1015.88
2019-05-05T13:44:47.712Z,1015.77
2019-05-05T13:45:48.127Z,1015.79
2019-05-05T13:47:47.815Z,1015.83
2019-05-05T13:50:48.017Z,1015.88
2019-05-05T13:51:47.965Z,1015.93
2019-05-05T13:52:48.968Z,1015.92
2019-05-05T13:53:48.119Z,1015.88
2019-05-05T13:54:48.072Z,1015.99
2019-05-05T13:55:48.254Z,1015.89
2019-05-05T13:56:48.490Z,1015.83
2019-05-05T13:57:48.220Z,1015.80
2019-05-05T13:59:49.421Z,1015.80
2019-05-05T14:00:48.430Z,1015.81
2019-05-05T14:01:48.790Z,1015.82
2019-05-05T14:02:48.611Z,1015.83
2019-05-05T14:03:49.436Z,1015.85
2019-05-05T14:04:48.512Z,1015.81